createdAt,value
2022-09-12T00:00:38.292Z,50.37
2022-09-12T00:01:41.938Z,50.37
2022-09-12T00:02:45.541Z,50.28
2022-09-12T00:03:49.147Z,50.26
2022-09-12T00:04:52.760Z,50.33
2022-09-12T00:05:56.193Z,50.38
2022-09-12T00:06:59.837Z,50.37
2022-09-12T00:08:01.841Z,50.31
2022-09-12T00:09:03.668Z,50.27
2022-09-12T00:10:05.565Z,50.25
2022-09-12T00:11:07.458Z,50.28
2022-09-12T00:12:09.303Z,50.32
2022-09-12T00:13:11.101Z,50.40
2022-09-12T00:14:12.894Z,50.42
2022-09-12T00:15:14.690Z,50.45
2022-09-12T00:16:17.357Z,50.47
2022-09-12T00:17:19.245Z,50.53
2022-09-12T00:18:21.059Z,50.63
2022-09-12T00:19:22.859Z,50.66
2022-09-12T00:20:26.378Z,50.61
2022-09-12T00:21:28.374Z,50.53
2022-09-12T00:22:30.211Z,50.55
2022-09-12T00:23:32.034Z,50.65
2022-09-12T00:24:33.830Z,50.72
2022-09-12T00:25:35.625Z,50.76
2022-09-12T00:26:37.767Z,50.74
2022-09-12T00:27:39.600Z,50.69
2022-09-12T00:28:41.479Z,50.61
2022-09-12T00:29:43.342Z,50.56
2022-09-12T00:30:45.243Z,50.54
2022-09-12T00:31:47.200Z,50.50
2022-09-12T00:32:49.078Z,50.44
2022-09-12T00:33:50.891Z,50.38
2022-09-12T00:34:52.681Z,50.30
2022-09-12T00:35:54.487Z,50.25
2022-09-12T00:36:56.401Z,50.19
2022-09-12T00:37:58.231Z,50.21
2022-09-12T00:39:00.042Z,50.20
2022-09-12T00:40:02.170Z,50.11
2022-09-12T00:41:03.952Z,50.01
2022-09-12T00:42:05.847Z,50.04
2022-09-12T00:43:07.674Z,49.96
2022-09-12T00:44:09.462Z,49.89
2022-09-12T00:45:11.271Z,49.89
2022-09-12T00:46:13.778Z,49.85
2022-09-12T00:47:15.581Z,49.82
2022-09-12T00:48:17.435Z,49.86
2022-09-12T00:49:19.236Z,49.93
2022-09-12T00:50:22.034Z,49.94
2022-09-12T00:51:23.828Z,50.00
2022-09-12T00:52:25.632Z,50.08
2022-09-12T00:53:27.476Z,50.13
2022-09-12T00:54:29.262Z,50.19
2022-09-12T00:55:31.049Z,50.24
2022-09-12T00:56:32.950Z,50.35
2022-09-12T00:57:34.833Z,50.42
2022-09-12T00:58:36.656Z,50.42
2022-09-12T00:59:38.444Z,50.45
2022-09-12T01:00:40.850Z,50.48
2022-09-12T01:01:42.738Z,50.53
2022-09-12T01:02:44.534Z,50.60
2022-09-12T01:03:46.364Z,50.65
2022-09-12T01:04:48.154Z,50.69
2022-09-12T01:05:49.949Z,50.69
2022-09-12T01:06:51.838Z,50.69
2022-09-12T01:07:53.636Z,50.72
2022-09-12T01:08:55.471Z,50.65
2022-09-12T01:09:57.249Z,50.67
2022-09-12T01:10:59.247Z,50.71
2022-09-12T01:12:01.049Z,50.72
2022-09-12T01:13:02.882Z,50.72
2022-09-12T01:14:04.703Z,50.71
2022-09-12T01:15:06.500Z,50.80
2022-09-12T01:16:08.799Z,50.85
2022-09-12T01:17:10.611Z,50.81
2022-09-12T01:18:12.309Z,50.86
2022-09-12T01:19:14.046Z,50.81
2022-09-12T01:20:16.151Z,50.78
2022-09-12T01:21:17.935Z,50.73
2022-09-12T01:22:19.752Z,50.73
2022-09-12T01:23:21.636Z,50.62
2022-09-12T01:24:23.485Z,50.54
2022-09-12T01:25:25.268Z,50.45
2022-09-12T01:26:27.671Z,50.38
2022-09-12T01:27:29.369Z,50.33
2022-09-12T01:28:31.147Z,50.26
2022-09-12T01:29:32.976Z,50.21
2022-09-12T01:30:34.875Z,50.19
2022-09-12T01:31:36.694Z,50.14
2022-09-12T01:32:38.493Z,50.10
2022-09-12T01:33:40.187Z,50.08
2022-09-12T01:34:42.011Z,49.99
2022-09-12T01:35:43.811Z,49.92
2022-09-12T01:36:45.713Z,49.90
2022-09-12T01:37:47.513Z,49.90
2022-09-12T01:38:49.303Z,49.91
2022-09-12T01:39:52.695Z,49.89
2022-09-12T01:40:54.571Z,49.88
2022-09-12T01:41:58.072Z,49.84
2022-09-12T01:42:59.885Z,49.86
2022-09-12T01:44:01.714Z,49.82
2022-09-12T01:45:03.440Z,49.82
2022-09-12T01:46:05.392Z,49.92
2022-09-12T01:47:07.218Z,49.94
2022-09-12T01:48:09.013Z,50.01
2022-09-12T01:49:10.813Z,49.96
2022-09-12T01:50:12.949Z,49.91
2022-09-12T01:51:14.751Z,49.88
2022-09-12T01:52:16.554Z,49.84
2022-09-12T01:53:18.347Z,49.80
2022-09-12T01:54:20.138Z,49.81
2022-09-12T01:55:21.967Z,49.80
2022-09-12T01:56:24.587Z,49.87
2022-09-12T01:57:26.389Z,49.87
2022-09-12T01:58:28.189Z,49.88
2022-09-12T01:59:29.985Z,49.93
2022-09-12T02:00:31.914Z,49.99
2022-09-12T02:01:33.746Z,50.00
2022-09-12T02:02:35.511Z,50.02
2022-09-12T02:03:37.299Z,50.08
2022-09-12T02:04:39.092Z,50.11
2022-09-12T02:05:40.927Z,50.16
2022-09-12T02:06:42.728Z,50.16
2022-09-12T02:07:44.526Z,50.21
2022-09-12T02:08:46.424Z,50.23
2022-09-12T02:09:48.407Z,50.28
2022-09-12T02:10:50.342Z,50.30
2022-09-12T02:11:52.130Z,50.31
2022-09-12T02:12:53.930Z,50.34
2022-09-12T02:13:55.721Z,50.38
2022-09-12T02:14:57.594Z,50.36
2022-09-12T02:15:59.430Z,50.40
2022-09-12T02:17:01.228Z,50.39
2022-09-12T02:18:02.927Z,50.40
2022-09-12T02:19:04.724Z,50.45
2022-09-12T02:20:06.627Z,50.44
2022-09-12T02:21:08.465Z,50.46
2022-09-12T02:22:10.250Z,50.50
2022-09-12T02:23:11.948Z,50.53
2022-09-12T02:24:13.745Z,50.53
2022-09-12T02:25:15.553Z,50.56
2022-09-12T02:26:18.301Z,50.57
2022-09-12T02:27:20.100Z,50.59
2022-09-12T02:28:21.893Z,50.62
2022-09-12T02:29:23.684Z,50.65
2022-09-12T02:30:26.102Z,50.58
2022-09-12T02:31:28.056Z,50.58
2022-09-12T02:32:29.870Z,50.56
2022-09-12T02:33:31.659Z,50.54
2022-09-12T02:34:33.448Z,50.56
2022-09-12T02:35:35.240Z,50.57
2022-09-12T02:36:37.187Z,50.59
2022-09-12T02:37:38.989Z,50.58
2022-09-12T02:38:40.778Z,50.63
2022-09-12T02:39:45.326Z,50.60
2022-09-12T02:40:46.277Z,50.66
2022-09-12T02:41:48.126Z,50.65
2022-09-12T02:42:49.931Z,50.72
2022-09-12T02:43:51.712Z,50.67
2022-09-12T02:44:53.515Z,50.76
2022-09-12T02:45:55.699Z,50.71
2022-09-12T02:46:57.698Z,50.71
2022-09-12T02:47:59.506Z,50.75
2022-09-12T02:49:01.300Z,50.77
2022-09-12T02:50:03.194Z,50.72
2022-09-12T02:51:04.983Z,50.74
2022-09-12T02:52:06.810Z,50.77
2022-09-12T02:53:08.613Z,50.80
2022-09-12T02:54:10.417Z,50.78
2022-09-12T02:55:12.219Z,50.81
2022-09-12T02:56:15.014Z,50.80
2022-09-12T02:57:20.650Z,50.82
2022-09-12T02:58:20.342Z,50.82
2022-09-12T02:59:22.141Z,50.82
2022-09-12T03:00:24.043Z,50.85
2022-09-12T03:01:26.260Z,50.95
2022-09-12T03:02:28.081Z,50.94
2022-09-12T03:03:29.860Z,51.00
2022-09-12T03:04:31.646Z,51.09
2022-09-12T03:05:33.346Z,51.05
2022-09-12T03:06:35.253Z,51.01
2022-09-12T03:07:37.084Z,50.95
2022-09-12T03:08:38.903Z,50.98
2022-09-12T03:09:40.702Z,51.17
2022-09-12T03:10:42.709Z,50.93
2022-09-12T03:11:44.504Z,50.91
2022-09-12T03:12:46.354Z,50.91
2022-09-12T03:13:48.147Z,50.91
2022-09-12T03:14:49.949Z,50.92
2022-09-12T03:15:51.751Z,50.93
2022-09-12T03:16:53.781Z,50.89
2022-09-12T03:17:55.627Z,50.89
2022-09-12T03:18:57.429Z,50.88
2022-09-12T03:19:59.239Z,50.97
2022-09-12T03:21:01.142Z,50.99
2022-09-12T03:22:02.938Z,50.96
2022-09-12T03:23:04.775Z,50.97
2022-09-12T03:24:06.581Z,50.97
2022-09-12T03:25:08.392Z,50.96
2022-09-12T03:26:10.810Z,51.00
2022-09-12T03:27:12.620Z,50.96
2022-09-12T03:28:14.465Z,50.97
2022-09-12T03:29:16.261Z,51.03
2022-09-12T03:30:18.498Z,51.10
2022-09-12T03:31:20.474Z,51.09
2022-09-12T03:32:22.410Z,51.11
2022-09-12T03:33:24.256Z,51.09
2022-09-12T03:34:26.057Z,51.14
2022-09-12T03:35:27.853Z,51.13
2022-09-12T03:36:29.744Z,51.16
2022-09-12T03:37:31.555Z,51.16
2022-09-12T03:38:33.395Z,51.18
2022-09-12T03:39:35.204Z,51.16
2022-09-12T03:40:37.300Z,51.15
2022-09-12T03:41:39.108Z,51.22
2022-09-12T03:42:40.921Z,51.22
2022-09-12T03:43:42.751Z,51.32
2022-09-12T03:44:44.556Z,51.37
2022-09-12T03:45:46.376Z,51.37
2022-09-12T03:46:48.258Z,51.31
2022-09-12T03:47:50.257Z,51.32
2022-09-12T03:48:52.120Z,51.35
2022-09-12T03:49:53.926Z,51.33
2022-09-12T03:50:55.935Z,51.34
2022-09-12T03:51:57.736Z,51.37
2022-09-12T03:52:59.744Z,51.65
2022-09-12T03:54:01.591Z,51.67
2022-09-12T03:55:03.388Z,51.61
2022-09-12T03:56:05.294Z,51.83
2022-09-12T03:57:07.094Z,51.88
2022-09-12T03:58:09.225Z,51.77
2022-09-12T03:59:11.049Z,51.83
2022-09-12T04:00:19.601Z,51.79
2022-09-12T04:01:18.351Z,51.78
2022-09-12T04:02:20.230Z,51.77
2022-09-12T04:03:22.027Z,51.77
2022-09-12T04:04:23.854Z,51.81
2022-09-12T04:05:25.673Z,51.85
2022-09-12T04:06:28.071Z,51.89
2022-09-12T04:07:29.862Z,51.93
2022-09-12T04:08:31.669Z,51.93
2022-09-12T04:09:33.515Z,51.95
2022-09-12T04:10:35.930Z,51.94
2022-09-12T04:11:37.735Z,52.00
2022-09-12T04:12:39.554Z,52.02
2022-09-12T04:13:41.334Z,51.99
2022-09-12T04:14:43.181Z,52.01
2022-09-12T04:15:44.995Z,51.98
2022-09-12T04:16:47.031Z,52.02
2022-09-12T04:17:48.809Z,51.99
2022-09-12T04:18:50.634Z,51.99
2022-09-12T04:19:52.482Z,51.99
2022-09-12T04:20:54.389Z,51.97
2022-09-12T04:21:56.191Z,52.03
2022-09-12T04:22:57.992Z,52.07
2022-09-12T04:23:59.802Z,52.03
2022-09-12T04:25:01.648Z,52.06
2022-09-12T04:26:03.555Z,52.11
2022-09-12T04:27:07.824Z,52.10
2022-09-12T04:28:08.969Z,52.14
2022-09-12T04:29:10.786Z,52.21
2022-09-12T04:30:13.240Z,52.19
2022-09-12T04:31:15.044Z,52.27
2022-09-12T04:32:16.854Z,52.29
2022-09-12T04:33:18.660Z,52.33
2022-09-12T04:34:20.485Z,52.41
2022-09-12T04:35:22.318Z,52.40
2022-09-12T04:36:25.650Z,52.47
2022-09-12T04:37:27.466Z,52.53
2022-09-12T04:38:29.274Z,52.62
2022-09-12T04:39:31.093Z,52.66
2022-09-12T04:40:33.238Z,52.75
2022-09-12T04:41:35.049Z,52.87
2022-09-12T04:42:37.583Z,52.98
2022-09-12T04:43:39.395Z,53.04
2022-09-12T04:44:41.197Z,53.09
2022-09-12T04:45:43.054Z,53.19
2022-09-12T04:46:44.947Z,53.35
2022-09-12T04:47:46.756Z,53.50
2022-09-12T04:48:49.799Z,53.74
2022-09-12T04:49:52.184Z,53.97
2022-09-12T04:50:54.109Z,54.31
2022-09-12T04:51:55.919Z,54.77
2022-09-12T04:52:57.729Z,55.13
2022-09-12T04:53:59.566Z,55.38
2022-09-12T04:55:01.357Z,55.62
2022-09-12T04:56:03.194Z,55.80
2022-09-12T04:57:05.005Z,55.99
2022-09-12T04:58:06.811Z,56.21
2022-09-12T04:59:08.621Z,56.37
2022-09-12T05:00:11.440Z,56.56
2022-09-12T05:01:13.619Z,56.78
2022-09-12T05:02:15.445Z,57.01
2022-09-12T05:03:17.304Z,57.24
2022-09-12T05:04:19.104Z,57.42
2022-09-12T05:05:20.930Z,57.57
2022-09-12T05:06:23.285Z,57.73
2022-09-12T05:07:25.091Z,57.89
2022-09-12T05:08:26.898Z,58.06
2022-09-12T05:09:28.692Z,58.21
2022-09-12T05:10:30.604Z,58.32
2022-09-12T05:11:59.772Z,58.41
2022-09-12T05:12:36.059Z,58.56
2022-09-12T05:13:37.888Z,58.84
2022-09-12T05:14:39.704Z,59.09
2022-09-12T05:15:42.196Z,59.22
2022-09-12T05:16:49.057Z,59.37
2022-09-12T05:17:47.957Z,59.46
2022-09-12T05:18:49.765Z,59.48
2022-09-12T05:19:51.558Z,59.46
2022-09-12T05:20:53.407Z,59.50
2022-09-12T05:21:55.153Z,59.54
2022-09-12T05:22:56.970Z,59.72
2022-09-12T05:23:58.764Z,59.91
2022-09-12T05:25:00.567Z,60.08
2022-09-12T05:26:02.464Z,60.22
2022-09-12T05:27:04.326Z,60.28
2022-09-12T05:28:06.114Z,60.35
2022-09-12T05:29:07.956Z,60.41
2022-09-12T05:30:10.242Z,60.37
2022-09-12T05:31:12.047Z,60.37
2022-09-12T05:32:13.871Z,60.36
2022-09-12T05:33:15.665Z,60.38
2022-09-12T05:34:17.473Z,60.36
2022-09-12T05:35:19.365Z,60.40
2022-09-12T05:36:23.062Z,60.45
2022-09-12T05:37:24.910Z,60.44
2022-09-12T05:38:26.705Z,60.45
2022-09-12T05:39:28.499Z,60.53
2022-09-12T05:40:30.510Z,60.65
2022-09-12T05:41:32.298Z,60.76
2022-09-12T05:42:34.141Z,60.88
2022-09-12T05:43:35.947Z,60.89
2022-09-12T05:44:37.670Z,60.88
2022-09-12T05:45:39.525Z,60.86
2022-09-12T05:46:41.408Z,60.83
2022-09-12T05:47:43.240Z,60.76
2022-09-12T05:48:45.051Z,60.72
2022-09-12T05:49:46.760Z,60.69
2022-09-12T05:50:48.667Z,60.66
2022-09-12T05:51:50.539Z,60.70
2022-09-12T05:52:52.368Z,60.77
2022-09-12T05:53:54.166Z,60.89
2022-09-12T05:54:55.979Z,61.03
2022-09-12T05:55:57.777Z,61.02
2022-09-12T05:56:59.767Z,61.09
2022-09-12T05:58:01.613Z,61.18
2022-09-12T05:59:03.421Z,61.26
2022-09-12T06:00:05.322Z,61.37
2022-09-12T06:01:07.150Z,61.47
2022-09-12T06:02:09.001Z,61.53
2022-09-12T06:03:12.622Z,61.62
2022-09-12T06:04:14.435Z,61.68
2022-09-12T06:05:16.235Z,61.76
2022-09-12T06:06:18.241Z,61.75
2022-09-12T06:07:20.076Z,61.72
2022-09-12T06:08:21.907Z,61.67
2022-09-12T06:09:23.707Z,61.70
2022-09-12T06:10:26.122Z,61.73
2022-09-12T06:11:27.926Z,61.68
2022-09-12T06:12:29.714Z,61.65
2022-09-12T06:13:31.573Z,61.69
2022-09-12T06:14:33.368Z,61.79
2022-09-12T06:15:35.171Z,61.79
2022-09-12T06:16:37.362Z,61.81
2022-09-12T06:17:39.485Z,61.87
2022-09-12T06:18:41.398Z,61.86
2022-09-12T06:19:43.223Z,61.88
2022-09-12T06:20:45.134Z,61.87
2022-09-12T06:21:47.676Z,61.86
2022-09-12T06:22:49.492Z,61.88
2022-09-12T06:23:51.332Z,61.86
2022-09-12T06:24:57.754Z,61.86
2022-09-12T06:25:57.009Z,61.93
2022-09-12T06:26:58.890Z,62.00
2022-09-12T06:28:00.616Z,62.16
2022-09-12T06:29:02.433Z,62.28
2022-09-12T06:30:04.355Z,62.44
2022-09-12T06:31:06.196Z,62.55
2022-09-12T06:32:08.052Z,62.64
2022-09-12T06:33:09.870Z,62.72
2022-09-12T06:34:11.687Z,62.84
2022-09-12T06:35:13.505Z,62.95
2022-09-12T06:36:15.500Z,63.01
2022-09-12T06:37:17.300Z,63.02
2022-09-12T06:38:19.129Z,63.01
2022-09-12T06:39:22.336Z,62.99
2022-09-12T06:40:24.514Z,62.98
2022-09-12T06:41:26.357Z,63.03
2022-09-12T06:42:28.064Z,63.02
2022-09-12T06:43:29.859Z,63.00
2022-09-12T06:44:31.711Z,62.97
2022-09-12T06:45:33.515Z,62.97
2022-09-12T06:46:35.413Z,62.94
2022-09-12T06:47:37.510Z,62.98
2022-09-12T06:48:41.936Z,63.02
2022-09-12T06:49:42.957Z,63.16
2022-09-12T06:50:44.860Z,63.21
2022-09-12T06:51:46.662Z,63.41
2022-09-12T06:52:48.455Z,63.50
2022-09-12T06:53:50.279Z,63.60
2022-09-12T06:54:52.112Z,63.66
2022-09-12T06:55:53.922Z,63.69
2022-09-12T06:56:55.716Z,63.64
2022-09-12T06:57:57.518Z,63.69
2022-09-12T06:58:59.223Z,63.54
2022-09-12T07:00:01.132Z,63.33
2022-09-12T07:01:02.988Z,63.19
2022-09-12T07:02:04.842Z,63.16
2022-09-12T07:03:06.661Z,63.17
2022-09-12T07:04:08.465Z,63.00
2022-09-12T07:05:10.297Z,62.97
2022-09-12T07:06:12.406Z,63.08
2022-09-12T07:07:14.205Z,63.13
2022-09-12T07:08:15.996Z,63.09
2022-09-12T07:09:17.878Z,63.20
2022-09-12T07:10:22.458Z,63.38
2022-09-12T07:11:25.408Z,63.57
2022-09-12T07:12:27.214Z,63.53
2022-09-12T07:13:29.030Z,63.52
2022-09-12T07:14:30.842Z,63.57
2022-09-12T07:15:32.700Z,63.66
2022-09-12T07:16:34.547Z,63.59
2022-09-12T07:17:36.293Z,63.67
2022-09-12T07:18:38.105Z,63.44
2022-09-12T07:19:39.882Z,63.13
2022-09-12T07:20:41.820Z,62.99
2022-09-12T07:21:43.634Z,62.93
2022-09-12T07:22:45.703Z,62.90
2022-09-12T07:23:47.670Z,62.86
2022-09-12T07:24:49.690Z,62.82
2022-09-12T07:25:51.841Z,62.75
2022-09-12T07:26:53.772Z,62.66
2022-09-12T07:27:55.578Z,62.42
2022-09-12T07:29:12.799Z,62.18
2022-09-12T07:30:01.028Z,62.13
2022-09-12T07:31:02.917Z,62.05
2022-09-12T07:32:04.749Z,61.91
2022-09-12T07:33:06.561Z,61.91
2022-09-12T07:34:08.383Z,61.97
2022-09-12T07:35:10.394Z,62.04
2022-09-12T07:36:13.768Z,62.03
2022-09-12T07:37:15.583Z,61.78
2022-09-12T07:38:17.452Z,61.47
2022-09-12T07:39:19.273Z,61.33
2022-09-12T07:40:22.576Z,61.29
2022-09-12T07:41:24.391Z,61.33
2022-09-12T07:42:26.195Z,61.49
2022-09-12T07:43:28.032Z,61.55
2022-09-12T07:44:29.850Z,61.60
2022-09-12T07:45:31.655Z,61.49
2022-09-12T07:46:33.714Z,61.17
2022-09-12T07:47:35.547Z,60.96
2022-09-12T07:48:37.329Z,60.90
2022-09-12T07:49:39.133Z,61.02
2022-09-12T07:50:45.043Z,61.10
2022-09-12T07:51:44.807Z,61.24
2022-09-12T07:52:46.601Z,61.40
2022-09-12T07:53:48.445Z,61.47
2022-09-12T07:54:50.316Z,61.42
2022-09-12T07:55:53.969Z,61.21
2022-09-12T07:56:56.132Z,61.07
2022-09-12T07:57:57.954Z,61.05
2022-09-12T07:58:59.789Z,61.06
2022-09-12T08:00:01.706Z,60.94
2022-09-12T08:01:03.558Z,60.85
2022-09-12T08:02:05.529Z,60.86
2022-09-12T08:03:07.284Z,60.88
2022-09-12T08:04:09.076Z,60.93
2022-09-12T08:05:10.964Z,60.90
2022-09-12T08:06:14.208Z,60.85
2022-09-12T08:07:16.075Z,60.88
2022-09-12T08:08:17.882Z,61.08
2022-09-12T08:09:19.696Z,61.17
2022-09-12T08:10:21.852Z,61.22
2022-09-12T08:11:23.656Z,61.23
2022-09-12T08:12:25.511Z,61.19
2022-09-12T08:13:27.453Z,61.18
2022-09-12T08:14:29.381Z,61.36
2022-09-12T08:15:31.221Z,61.67
2022-09-12T08:16:33.326Z,61.88
2022-09-12T08:17:35.171Z,61.95
2022-09-12T08:18:36.975Z,62.02
2022-09-12T08:19:38.892Z,62.11
2022-09-12T08:20:40.891Z,62.11
2022-09-12T08:21:43.256Z,62.13
2022-09-12T08:22:45.094Z,62.08
2022-09-12T08:23:46.989Z,61.99
2022-09-12T08:24:48.853Z,62.05
2022-09-12T08:25:50.652Z,61.99
2022-09-12T08:26:53.001Z,61.96
2022-09-12T08:27:54.863Z,61.94
2022-09-12T08:28:56.861Z,61.85
2022-09-12T08:29:58.706Z,61.84
2022-09-12T08:31:00.747Z,62.06
2022-09-12T08:32:02.734Z,62.10
2022-09-12T08:33:04.598Z,62.39
2022-09-12T08:34:06.402Z,62.60
2022-09-12T08:35:08.196Z,62.73
2022-09-12T08:36:10.745Z,62.67
2022-09-12T08:37:12.544Z,62.69
2022-09-12T08:38:14.888Z,62.62
2022-09-12T08:39:16.721Z,62.55
2022-09-12T08:40:19.038Z,62.51
2022-09-12T08:41:20.884Z,62.59
2022-09-12T08:42:22.797Z,62.49
2022-09-12T08:43:24.640Z,62.64
2022-09-12T08:44:26.826Z,62.65
2022-09-12T08:45:28.772Z,62.43
2022-09-12T08:46:30.926Z,62.41
2022-09-12T08:47:32.753Z,62.30
2022-09-12T08:48:34.662Z,62.11
2022-09-12T08:49:36.483Z,61.88
2022-09-12T08:50:38.845Z,61.67
2022-09-12T08:51:40.796Z,61.57
2022-09-12T08:52:43.508Z,61.49
2022-09-12T08:53:45.540Z,61.37
2022-09-12T08:54:47.325Z,61.34
2022-09-12T08:55:49.144Z,61.28
2022-09-12T08:56:51.238Z,61.20
2022-09-12T08:57:53.354Z,61.16
2022-09-12T08:58:55.337Z,61.19
2022-09-12T08:59:57.112Z,61.33
2022-09-12T09:00:59.042Z,61.39
2022-09-12T09:02:01.091Z,61.31
2022-09-12T09:03:02.934Z,61.22
2022-09-12T09:04:05.627Z,61.29
2022-09-12T09:05:08.165Z,61.49
2022-09-12T09:06:10.177Z,61.55
2022-09-12T09:07:12.000Z,61.42
2022-09-12T09:08:13.821Z,61.27
2022-09-12T09:09:15.655Z,61.22
2022-09-12T09:10:17.788Z,61.22
2022-09-12T09:11:19.633Z,61.26
2022-09-12T09:12:21.446Z,61.17
2022-09-12T09:13:23.331Z,61.10
2022-09-12T09:14:25.180Z,60.98
2022-09-12T09:15:27.039Z,61.09
2022-09-12T09:16:29.310Z,61.37
2022-09-12T09:17:31.128Z,61.40
2022-09-12T09:18:32.931Z,61.25
2022-09-12T09:19:34.765Z,61.11
2022-09-12T09:20:36.705Z,61.02
2022-09-12T09:21:38.498Z,60.88
2022-09-12T09:22:40.320Z,60.81
2022-09-12T09:23:42.244Z,60.74
2022-09-12T09:24:44.118Z,60.67
2022-09-12T09:25:45.970Z,60.72
2022-09-12T09:26:47.984Z,60.78
2022-09-12T09:27:49.777Z,60.85
2022-09-12T09:28:52.312Z,60.84
2022-09-12T09:29:55.308Z,60.81
2022-09-12T09:30:58.375Z,60.95
2022-09-12T09:32:01.737Z,60.90
2022-09-12T09:33:03.992Z,60.84
2022-09-12T09:34:05.798Z,60.90
2022-09-12T09:35:07.638Z,60.83
2022-09-12T09:36:09.768Z,60.80
2022-09-12T09:37:11.573Z,60.79
2022-09-12T09:38:13.575Z,60.72
2022-09-12T09:39:15.393Z,60.74
2022-09-12T09:40:19.173Z,60.78
2022-09-12T09:41:21.131Z,60.63
2022-09-12T09:42:23.027Z,60.40
2022-09-12T09:43:24.830Z,60.01
2022-09-12T09:44:26.724Z,59.68
2022-09-12T09:45:28.557Z,59.57
2022-09-12T09:46:30.591Z,59.58
2022-09-12T09:47:32.397Z,59.65
2022-09-12T09:48:34.298Z,59.83
2022-09-12T09:49:36.085Z,60.06
2022-09-12T09:50:38.032Z,59.96
2022-09-12T09:51:39.838Z,59.90
2022-09-12T09:52:41.550Z,59.87
2022-09-12T09:53:43.341Z,59.88
2022-09-12T09:54:45.566Z,59.85
2022-09-12T09:55:47.380Z,59.70
2022-09-12T09:56:49.286Z,59.54
2022-09-12T09:57:51.070Z,59.38
2022-09-12T09:58:52.943Z,59.34
2022-09-12T09:59:54.805Z,59.50
2022-09-12T10:00:56.880Z,59.51
2022-09-12T10:01:59.131Z,59.38
2022-09-12T10:03:00.940Z,59.34
2022-09-12T10:04:02.747Z,59.16
2022-09-12T10:05:04.564Z,59.05
2022-09-12T10:06:06.722Z,58.97
2022-09-12T10:07:08.514Z,58.96
2022-09-12T10:08:10.334Z,58.99
2022-09-12T10:09:12.289Z,58.96
2022-09-12T10:10:14.661Z,58.98
2022-09-12T10:11:16.497Z,59.04
2022-09-12T10:12:18.602Z,58.96
2022-09-12T10:13:20.740Z,58.86
2022-09-12T10:14:22.486Z,58.78
2022-09-12T10:15:24.367Z,58.75
2022-09-12T10:16:26.710Z,58.90
2022-09-12T10:17:33.880Z,58.86
2022-09-12T10:18:32.432Z,58.82
2022-09-12T10:19:34.226Z,58.76
2022-09-12T10:20:36.130Z,58.74
2022-09-12T10:21:40.969Z,58.63
2022-09-12T10:22:41.620Z,58.49
2022-09-12T10:23:43.489Z,58.40
2022-09-12T10:24:45.223Z,58.37
2022-09-12T10:25:47.414Z,58.43
2022-09-12T10:26:52.257Z,58.52
2022-09-12T10:27:53.117Z,58.63
2022-09-12T10:28:54.919Z,58.52
2022-09-12T10:29:56.731Z,58.32
2022-09-12T10:30:58.817Z,58.19
2022-09-12T10:32:00.664Z,57.92
2022-09-12T10:33:02.647Z,58.07
2022-09-12T10:34:04.466Z,58.09
2022-09-12T10:35:06.268Z,57.99
2022-09-12T10:36:08.369Z,57.94
2022-09-12T10:37:10.131Z,57.91
2022-09-12T10:38:11.943Z,57.96
2022-09-12T10:39:13.739Z,57.92
2022-09-12T10:40:15.899Z,57.98
2022-09-12T10:41:17.734Z,57.96
2022-09-12T10:42:23.362Z,58.02
2022-09-12T10:43:23.370Z,57.84
2022-09-12T10:44:25.168Z,57.62
2022-09-12T10:45:26.992Z,57.50
2022-09-12T10:46:29.433Z,57.47
2022-09-12T10:47:31.320Z,57.38
2022-09-12T10:48:33.163Z,57.35
2022-09-12T10:49:35.045Z,57.34
2022-09-12T10:50:37.149Z,57.00
2022-09-12T10:51:38.957Z,57.08
2022-09-12T10:52:41.602Z,56.95
2022-09-12T10:53:43.701Z,57.00
2022-09-12T10:54:45.540Z,57.07
2022-09-12T10:55:47.434Z,57.05
2022-09-12T10:56:49.340Z,57.08
2022-09-12T10:57:51.189Z,57.04
2022-09-12T10:58:53.299Z,57.03
2022-09-12T10:59:55.181Z,56.89
2022-09-12T11:00:57.099Z,56.93
2022-09-12T11:01:59.734Z,57.01
2022-09-12T11:03:02.294Z,56.99
2022-09-12T11:04:04.110Z,56.97
2022-09-12T11:05:05.902Z,56.98
2022-09-12T11:06:08.008Z,56.91
2022-09-12T11:07:09.807Z,56.87
2022-09-12T11:08:11.831Z,56.85
2022-09-12T11:09:13.629Z,56.97
2022-09-12T11:10:16.006Z,56.94
2022-09-12T11:11:17.796Z,57.05
2022-09-12T11:12:19.597Z,57.08
2022-09-12T11:13:21.503Z,57.04
2022-09-12T11:14:23.290Z,57.12
2022-09-12T11:15:25.103Z,57.17
2022-09-12T11:16:27.366Z,57.12
2022-09-12T11:17:29.171Z,57.13
2022-09-12T11:18:31.060Z,57.05
2022-09-12T11:19:32.866Z,57.00
2022-09-12T11:20:34.765Z,56.94
2022-09-12T11:21:36.664Z,56.95
2022-09-12T11:22:38.635Z,56.94
2022-09-12T11:23:40.478Z,56.97
2022-09-12T11:24:42.333Z,56.97
2022-09-12T11:25:44.132Z,56.97
2022-09-12T11:26:46.051Z,57.16
2022-09-12T11:27:47.890Z,57.13
2022-09-12T11:28:49.935Z,57.16
2022-09-12T11:29:51.745Z,57.19
2022-09-12T11:30:53.965Z,57.19
2022-09-12T11:31:55.750Z,57.23
2022-09-12T11:32:57.786Z,57.18
2022-09-12T11:33:59.839Z,57.08
2022-09-12T11:35:01.868Z,57.05
2022-09-12T11:36:03.852Z,57.04
2022-09-12T11:37:10.290Z,56.97
2022-09-12T11:38:09.486Z,56.84
2022-09-12T11:39:11.380Z,56.74
2022-09-12T11:40:13.614Z,56.76
2022-09-12T11:41:15.371Z,56.73
2022-09-12T11:42:17.358Z,56.75
2022-09-12T11:43:19.438Z,56.82
2022-09-12T11:44:21.348Z,56.75
2022-09-12T11:45:23.229Z,56.65
2022-09-12T11:46:26.088Z,56.63
2022-09-12T11:47:28.187Z,56.40
2022-09-12T11:48:30.029Z,56.44
2022-09-12T11:49:35.422Z,56.48
2022-09-12T11:50:35.504Z,56.47
2022-09-12T11:51:37.317Z,56.21
2022-09-12T11:52:39.113Z,56.13
2022-09-12T11:53:40.930Z,55.93
2022-09-12T11:54:42.766Z,55.92
2022-09-12T11:55:44.580Z,55.89
2022-09-12T11:56:46.482Z,55.87
2022-09-12T11:57:48.291Z,55.67
2022-09-12T11:58:50.105Z,55.75
2022-09-12T11:59:51.963Z,55.80
2022-09-12T12:00:53.868Z,55.81
2022-09-12T12:01:55.678Z,55.90
2022-09-12T12:02:57.487Z,55.42
2022-09-12T12:03:59.393Z,55.42
2022-09-12T12:05:01.190Z,55.49
2022-09-12T12:06:03.098Z,55.50
2022-09-12T12:07:04.907Z,55.49
2022-09-12T12:08:06.743Z,55.44
2022-09-12T12:09:08.562Z,55.54
2022-09-12T12:10:10.917Z,55.53
2022-09-12T12:11:12.744Z,55.54
2022-09-12T12:12:14.542Z,55.52
2022-09-12T12:13:16.364Z,55.58
2022-09-12T12:14:18.172Z,55.69
2022-09-12T12:15:20.127Z,55.70
2022-09-12T12:16:22.492Z,55.70
2022-09-12T12:17:24.267Z,55.73
2022-09-12T12:18:26.081Z,55.70
2022-09-12T12:19:28.010Z,55.65
2022-09-12T12:20:30.001Z,55.64
2022-09-12T12:21:31.823Z,55.61
2022-09-12T12:22:33.824Z,55.57
2022-09-12T12:23:35.690Z,55.56
2022-09-12T12:24:37.554Z,55.53
2022-09-12T12:25:39.452Z,55.49
2022-09-12T12:26:41.371Z,55.43
2022-09-12T12:27:43.191Z,55.38
2022-09-12T12:28:45.076Z,55.27
2022-09-12T12:29:46.921Z,55.29
2022-09-12T12:30:48.912Z,55.30
2022-09-12T12:31:51.020Z,55.10
2022-09-12T12:32:53.431Z,54.94
2022-09-12T12:33:55.629Z,55.00
2022-09-12T12:34:57.538Z,55.14
2022-09-12T12:35:59.596Z,55.04
2022-09-12T12:37:07.196Z,54.96
2022-09-12T12:38:05.922Z,55.00
2022-09-12T12:39:08.796Z,54.84
2022-09-12T12:40:11.202Z,54.78
2022-09-12T12:41:13.105Z,54.81
2022-09-12T12:42:19.071Z,54.46
2022-09-12T12:43:19.941Z,54.51
2022-09-12T12:44:25.508Z,54.68
2022-09-12T12:45:27.903Z,54.72
2022-09-12T12:46:30.730Z,54.75
2022-09-12T12:47:33.120Z,54.76
2022-09-12T12:48:35.802Z,54.81
2022-09-12T12:49:41.708Z,54.79
2022-09-12T12:50:44.290Z,54.76
2022-09-12T12:51:47.063Z,54.75
2022-09-12T12:52:49.734Z,54.73
2022-09-12T12:53:54.817Z,54.71
2022-09-12T12:54:58.535Z,54.61
2022-09-12T12:56:00.963Z,54.66
2022-09-12T12:57:03.517Z,54.67
2022-09-12T12:58:05.615Z,54.67
2022-09-12T12:59:07.975Z,54.67
2022-09-12T13:00:09.991Z,54.72
2022-09-12T13:01:11.901Z,54.77
2022-09-12T13:02:14.010Z,54.81
2022-09-12T13:03:16.287Z,54.76
2022-09-12T13:04:18.135Z,54.69
2022-09-12T13:05:19.958Z,54.64
2022-09-12T13:06:23.758Z,54.60
2022-09-12T13:07:25.609Z,54.58
2022-09-12T13:08:31.434Z,54.63
2022-09-12T13:09:33.890Z,54.62
2022-09-12T13:10:36.418Z,54.69
2022-09-12T13:11:38.269Z,54.66
2022-09-12T13:12:40.099Z,54.64
2022-09-12T13:13:42.772Z,54.63
2022-09-12T13:14:45.181Z,54.59
2022-09-12T13:15:47.046Z,54.57
2022-09-12T13:16:49.001Z,54.51
2022-09-12T13:17:50.902Z,54.56
2022-09-12T13:18:52.710Z,54.50